sensor_id;sensor_type;location;lat;lon;timestamp;pressure;altitude;pressure_sealevel;temperature;humidity
49122;BME280;35529;44.342;25.944;2023-03-03T00:00:11;67726.06;;;-146.62;100.00
49122;BME280;35529;44.342;25.944;2023-03-03T00:03:03;67726.06;;;-146.62;100.00
49122;BME280;35529;44.342;25.944;2023-03-03T00:05:52;67726.06;;;-146.62;100.00
49122;BME280;35529;44.342;25.944;2023-03-03T00:08:40;67726.06;;;-146.62;100.00
49122;BME280;35529;44.342;25.944;2023-03-03T00:11:29;67726.06;;;-146.62;100.00
49122;BME280;35529;44.342;25.944;2023-03-03T00:14:21;67726.06;;;-146.62;100.00
49122;BME280;35529;44.342;25.944;2023-03-03T00:17:13;67726.06;;;-146.62;100.00
49122;BME280;35529;44.342;25.944;2023-03-03T00:20:01;67726.06;;;-146.62;100.00
49122;BME280;35529;44.342;25.944;2023-03-03T00:26:22;67726.06;;;-146.62;100.00
49122;BME280;35529;44.342;25.944;2023-03-03T00:35:29;67726.06;;;-146.62;100.00
49122;BME280;35529;44.342;25.944;2023-03-03T00:38:20;67726.06;;;-146.62;100.00
49122;BME280;35529;44.342;25.944;2023-03-03T00:41:25;67726.06;;;-146.62;100.00
49122;BME280;35529;44.342;25.944;2023-03-03T00:44:34;67726.06;;;-146.62;100.00
49122;BME280;35529;44.342;25.944;2023-03-03T00:53:09;67726.06;;;-146.62;100.00
49122;BME280;35529;44.342;25.944;2023-03-03T00:55:59;67726.06;;;-146.62;100.00
49122;BME280;35529;44.342;25.944;2023-03-03T00:58:51;67726.06;;;-146.62;100.00
49122;BME280;35529;44.342;25.944;2023-03-03T01:01:40;67726.06;;;-146.62;100.00
49122;BME280;35529;44.342;25.944;2023-03-03T01:04:27;67726.06;;;-146.62;100.00
49122;BME280;35529;44.342;25.944;2023-03-03T01:07:15;67726.06;;;-146.62;100.00
49122;BME280;35529;44.342;25.944;2023-03-03T01:10:03;67726.06;;;-146.62;100.00
49122;BME280;35529;44.342;25.944;2023-03-03T01:12:50;67726.06;;;-146.62;100.00
49122;BME280;35529;44.342;25.944;2023-03-03T01:15:37;67726.06;;;-146.62;100.00
49122;BME280;35529;44.342;25.944;2023-03-03T01:18:28;67726.06;;;-146.62;100.00
49122;BME280;35529;44.342;25.944;2023-03-03T01:21:19;67726.06;;;-146.62;100.00
49122;BME280;35529;44.342;25.944;2023-03-03T01:24:07;67726.06;;;-146.62;100.00
49122;BME280;35529;44.342;25.944;2023-03-03T01:26:56;67726.06;;;-146.62;100.00
49122;BME280;35529;44.342;25.944;2023-03-03T01:29:43;67726.06;;;-146.62;100.00
49122;BME280;35529;44.342;25.944;2023-03-03T01:32:31;67726.06;;;-146.62;100.00
49122;BME280;35529;44.342;25.944;2023-03-03T01:35:19;67726.06;;;-146.62;100.00
49122;BME280;35529;44.342;25.944;2023-03-03T01:38:09;67726.06;;;-146.62;100.00
49122;BME280;35529;44.342;25.944;2023-03-03T01:40:57;67726.06;;;-146.62;100.00
49122;BME280;35529;44.342;25.944;2023-03-03T01:43:46;67726.06;;;-146.62;100.00
49122;BME280;35529;44.342;25.944;2023-03-03T01:49:35;67726.06;;;-146.62;100.00
49122;BME280;35529;44.342;25.944;2023-03-03T01:52:44;67726.06;;;-146.62;100.00
49122;BME280;35529;44.342;25.944;2023-03-03T01:55:34;67726.06;;;-146.62;100.00
49122;BME280;35529;44.342;25.944;2023-03-03T01:58:31;67726.06;;;-146.62;100.00
49122;BME280;35529;44.342;25.944;2023-03-03T02:01:23;67726.06;;;-146.62;100.00
49122;BME280;35529;44.342;25.944;2023-03-03T02:04:11;67726.06;;;-146.62;100.00
49122;BME280;35529;44.342;25.944;2023-03-03T02:07:03;67726.06;;;-146.62;100.00
49122;BME280;35529;44.342;25.944;2023-03-03T02:10:03;67726.06;;;-146.62;100.00
49122;BME280;35529;44.342;25.944;2023-03-03T02:12:52;67726.06;;;-146.62;100.00
49122;BME280;35529;44.342;25.944;2023-03-03T02:15:53;67726.06;;;-146.62;100.00
49122;BME280;35529;44.342;25.944;2023-03-03T02:18:53;67726.06;;;-146.62;100.00
49122;BME280;35529;44.342;25.944;2023-03-03T02:21:51;67726.06;;;-146.62;100.00
49122;BME280;35529;44.342;25.944;2023-03-03T02:24:40;67726.06;;;-146.62;100.00
49122;BME280;35529;44.342;25.944;2023-03-03T02:27:29;67726.06;;;-146.62;100.00
49122;BME280;35529;44.342;25.944;2023-03-03T02:30:22;67726.06;;;-146.62;100.00
49122;BME280;35529;44.342;25.944;2023-03-03T02:33:09;67726.06;;;-146.62;100.00
49122;BME280;35529;44.342;25.944;2023-03-03T02:35:59;67726.06;;;-146.62;100.00
49122;BME280;35529;44.342;25.944;2023-03-03T02:39:08;67726.06;;;-146.62;100.00
49122;BME280;35529;44.342;25.944;2023-03-03T02:44:46;67726.06;;;-146.62;100.00
49122;BME280;35529;44.342;25.944;2023-03-03T02:47:33;67726.06;;;-146.62;100.00
49122;BME280;35529;44.342;25.944;2023-03-03T02:50:22;67726.06;;;-146.62;100.00
49122;BME280;35529;44.342;25.944;2023-03-03T02:53:09;67726.06;;;-146.62;100.00
49122;BME280;35529;44.342;25.944;2023-03-03T02:55:56;67726.06;;;-146.62;100.00
49122;BME280;35529;44.342;25.944;2023-03-03T02:58:44;67726.06;;;-146.62;100.00
49122;BME280;35529;44.342;25.944;2023-03-03T03:01:38;67726.06;;;-146.62;100.00
49122;BME280;35529;44.342;25.944;2023-03-03T03:04:26;67726.06;;;-146.62;100.00
49122;BME280;35529;44.342;25.944;2023-03-03T03:07:15;67726.06;;;-146.62;100.00
49122;BME280;35529;44.342;25.944;2023-03-03T03:10:05;67726.06;;;-146.62;100.00
49122;BME280;35529;44.342;25.944;2023-03-03T03:12:59;67726.06;;;-146.62;100.00
49122;BME280;35529;44.342;25.944;2023-03-03T03:15:50;67726.06;;;-146.62;100.00
49122;BME280;35529;44.342;25.944;2023-03-03T03:18:42;67726.06;;;-146.62;100.00
49122;BME280;35529;44.342;25.944;2023-03-03T03:21:33;67726.06;;;-146.62;100.00
49122;BME280;35529;44.342;25.944;2023-03-03T03:24:22;67726.06;;;-146.62;100.00
49122;BME280;35529;44.342;25.944;2023-03-03T03:27:09;67726.06;;;-146.62;100.00
49122;BME280;35529;44.342;25.944;2023-03-03T03:29:56;67726.06;;;-146.62;100.00
49122;BME280;35529;44.342;25.944;2023-03-03T03:32:42;67726.06;;;-146.62;100.00
49122;BME280;35529;44.342;25.944;2023-03-03T03:35:29;67726.06;;;-146.62;100.00
49122;BME280;35529;44.342;25.944;2023-03-03T03:38:21;67726.06;;;-146.62;100.00
49122;BME280;35529;44.342;25.944;2023-03-03T03:41:11;67726.06;;;-146.62;100.00
49122;BME280;35529;44.342;25.944;2023-03-03T03:44:02;67726.06;;;-146.62;100.00
49122;BME280;35529;44.342;25.944;2023-03-03T03:46:55;67726.06;;;-146.62;100.00
49122;BME280;35529;44.342;25.944;2023-03-03T03:49:44;67726.06;;;-146.62;100.00
49122;BME280;35529;44.342;25.944;2023-03-03T03:52:34;67726.06;;;-146.62;100.00
49122;BME280;35529;44.342;25.944;2023-03-03T03:55:21;67726.06;;;-146.62;100.00
49122;BME280;35529;44.342;25.944;2023-03-03T03:58:28;67726.06;;;-146.62;100.00
49122;BME280;35529;44.342;25.944;2023-03-03T04:01:16;67726.06;;;-146.62;100.00
49122;BME280;35529;44.342;25.944;2023-03-03T04:04:05;67726.06;;;-146.62;100.00
49122;BME280;35529;44.342;25.944;2023-03-03T04:06:52;67726.06;;;-146.62;100.00
49122;BME280;35529;44.342;25.944;2023-03-03T04:09:42;67726.06;;;-146.62;100.00
49122;BME280;35529;44.342;25.944;2023-03-03T04:12:29;67726.06;;;-146.62;100.00
49122;BME280;35529;44.342;25.944;2023-03-03T04:15:26;67726.06;;;-146.62;100.00
49122;BME280;35529;44.342;25.944;2023-03-03T04:18:13;67726.06;;;-146.62;100.00
49122;BME280;35529;44.342;25.944;2023-03-03T04:21:02;67726.06;;;-146.62;100.00
49122;BME280;35529;44.342;25.944;2023-03-03T04:23:49;67726.06;;;-146.62;100.00
49122;BME280;35529;44.342;25.944;2023-03-03T04:26:36;67726.06;;;-146.62;100.00
49122;BME280;35529;44.342;25.944;2023-03-03T04:29:26;67726.06;;;-146.62;100.00
49122;BME280;35529;44.342;25.944;2023-03-03T04:32:17;67726.06;;;-146.62;100.00
49122;BME280;35529;44.342;25.944;2023-03-03T04:35:04;67726.06;;;-146.62;100.00
49122;BME280;35529;44.342;25.944;2023-03-03T04:37:51;67726.06;;;-146.62;100.00
49122;BME280;35529;44.342;25.944;2023-03-03T04:40:41;67726.06;;;-146.62;100.00
49122;BME280;35529;44.342;25.944;2023-03-03T04:43:28;67726.06;;;-146.62;100.00
49122;BME280;35529;44.342;25.944;2023-03-03T04:46:15;67726.06;;;-146.62;100.00
49122;BME280;35529;44.342;25.944;2023-03-03T04:49:05;67726.06;;;-146.62;100.00
49122;BME280;35529;44.342;25.944;2023-03-03T04:51:53;67726.06;;;-146.62;100.00
49122;BME280;35529;44.342;25.944;2023-03-03T04:54:41;67726.06;;;-146.62;100.00
49122;BME280;35529;44.342;25.944;2023-03-03T04:57:31;67726.06;;;-146.62;100.00
49122;BME280;35529;44.342;25.944;2023-03-03T05:00:17;67726.06;;;-146.62;100.00
49122;BME280;35529;44.342;25.944;2023-03-03T05:03:09;67726.06;;;-146.62;100.00
49122;BME280;35529;44.342;25.944;2023-03-03T05:05:57;67726.06;;;-146.62;100.00
49122;BME280;35529;44.342;25.944;2023-03-03T05:08:49;67726.06;;;-146.62;100.00
49122;BME280;35529;44.342;25.944;2023-03-03T05:11:40;67726.06;;;-146.62;100.00
49122;BME280;35529;44.342;25.944;2023-03-03T05:14:27;67726.06;;;-146.62;100.00
49122;BME280;35529;44.342;25.944;2023-03-03T05:17:13;67726.06;;;-146.62;100.00
49122;BME280;35529;44.342;25.944;2023-03-03T05:20:00;67726.06;;;-146.62;100.00
49122;BME280;35529;44.342;25.944;2023-03-03T05:22:50;67726.06;;;-146.62;100.00
49122;BME280;35529;44.342;25.944;2023-03-03T05:25:39;67726.06;;;-146.62;100.00
49122;BME280;35529;44.342;25.944;2023-03-03T05:28:29;67726.06;;;-146.62;100.00
49122;BME280;35529;44.342;25.944;2023-03-03T05:31:18;67726.06;;;-146.62;100.00
49122;BME280;35529;44.342;25.944;2023-03-03T05:34:05;67726.06;;;-146.62;100.00
49122;BME280;35529;44.342;25.944;2023-03-03T05:36:52;67726.06;;;-146.62;100.00
49122;BME280;35529;44.342;25.944;2023-03-03T05:39:41;67726.06;;;-146.62;100.00
49122;BME280;35529;44.342;25.944;2023-03-03T05:42:29;67726.06;;;-146.62;100.00
49122;BME280;35529;44.342;25.944;2023-03-03T05:45:22;67726.06;;;-146.62;100.00
49122;BME280;35529;44.342;25.944;2023-03-03T05:48:09;67726.06;;;-146.62;100.00
49122;BME280;35529;44.342;25.944;2023-03-03T05:50:58;67726.06;;;-146.62;100.00
49122;BME280;35529;44.342;25.944;2023-03-03T05:53:45;67726.06;;;-146.62;100.00
49122;BME280;35529;44.342;25.944;2023-03-03T05:56:32;67726.06;;;-146.62;100.00
49122;BME280;35529;44.342;25.944;2023-03-03T05:59:22;67726.06;;;-146.62;100.00
49122;BME280;35529;44.342;25.944;2023-03-03T06:02:14;67726.06;;;-146.62;100.00
49122;BME280;35529;44.342;25.944;2023-03-03T06:05:04;67726.06;;;-146.62;100.00
49122;BME280;35529;44.342;25.944;2023-03-03T06:07:53;67726.06;;;-146.62;100.00
49122;BME280;35529;44.342;25.944;2023-03-03T06:10:40;67726.06;;;-146.62;100.00
49122;BME280;35529;44.342;25.944;2023-03-03T06:13:28;67726.06;;;-146.62;100.00
49122;BME280;35529;44.342;25.944;2023-03-03T06:16:18;67726.06;;;-146.62;100.00
49122;BME280;35529;44.342;25.944;2023-03-03T06:19:06;67726.06;;;-146.62;100.00
49122;BME280;35529;44.342;25.944;2023-03-03T06:21:55;67726.06;;;-146.62;100.00
49122;BME280;35529;44.342;25.944;2023-03-03T06:24:43;67726.06;;;-146.62;100.00
49122;BME280;35529;44.342;25.944;2023-03-03T06:27:30;67726.06;;;-146.62;100.00
49122;BME280;35529;44.342;25.944;2023-03-03T06:30:20;67726.06;;;-146.62;100.00
49122;BME280;35529;44.342;25.944;2023-03-03T06:33:09;67726.06;;;-146.62;100.00
49122;BME280;35529;44.342;25.944;2023-03-03T06:36:04;67726.06;;;-146.62;100.00
49122;BME280;35529;44.342;25.944;2023-03-03T06:38:53;67726.06;;;-146.62;100.00
49122;BME280;35529;44.342;25.944;2023-03-03T06:41:40;67726.06;;;-146.62;100.00
49122;BME280;35529;44.342;25.944;2023-03-03T06:44:29;67726.06;;;-146.62;100.00
49122;BME280;35529;44.342;25.944;2023-03-03T06:47:21;67726.06;;;-146.62;100.00
49122;BME280;35529;44.342;25.944;2023-03-03T06:50:11;67726.06;;;-146.62;100.00
49122;BME280;35529;44.342;25.944;2023-03-03T06:53:12;67726.06;;;-146.62;100.00
49122;BME280;35529;44.342;25.944;2023-03-03T06:55:59;67726.06;;;-146.62;100.00
49122;BME280;35529;44.342;25.944;2023-03-03T06:58:57;67726.06;;;-146.62;100.00
49122;BME280;35529;44.342;25.944;2023-03-03T07:01:45;67726.06;;;-146.62;100.00
49122;BME280;35529;44.342;25.944;2023-03-03T07:04:37;67726.06;;;-146.62;100.00
49122;BME280;35529;44.342;25.944;2023-03-03T07:07:25;67726.06;;;-146.62;100.00
49122;BME280;35529;44.342;25.944;2023-03-03T07:10:21;67726.06;;;-146.62;100.00
49122;BME280;35529;44.342;25.944;2023-03-03T07:16:04;67726.06;;;-146.62;100.00
49122;BME280;35529;44.342;25.944;2023-03-03T07:18:56;67726.06;;;-146.62;100.00
49122;BME280;35529;44.342;25.944;2023-03-03T07:21:52;67726.06;;;-146.62;100.00
49122;BME280;35529;44.342;25.944;2023-03-03T07:24:43;67726.06;;;-146.62;100.00
49122;BME280;35529;44.342;25.944;2023-03-03T07:27:30;67726.06;;;-146.62;100.00
49122;BME280;35529;44.342;25.944;2023-03-03T07:30:27;67726.06;;;-146.62;100.00
49122;BME280;35529;44.342;25.944;2023-03-03T07:33:28;67726.06;;;-146.62;100.00
49122;BME280;35529;44.342;25.944;2023-03-03T07:36:29;67726.06;;;-146.62;100.00
49122;BME280;35529;44.342;25.944;2023-03-03T07:39:23;67726.06;;;-146.62;100.00
49122;BME280;35529;44.342;25.944;2023-03-03T07:45:01;67726.06;;;-146.62;100.00
49122;BME280;35529;44.342;25.944;2023-03-03T07:47:50;67726.06;;;-146.62;100.00
49122;BME280;35529;44.342;25.944;2023-03-03T07:50:36;67726.06;;;-146.62;100.00
49122;BME280;35529;44.342;25.944;2023-03-03T07:53:28;67726.06;;;-146.62;100.00
49122;BME280;35529;44.342;25.944;2023-03-03T07:56:23;67726.06;;;-146.62;100.00
49122;BME280;35529;44.342;25.944;2023-03-03T07:59:23;67726.06;;;-146.62;100.00
49122;BME280;35529;44.342;25.944;2023-03-03T08:11:15;67726.06;;;-146.62;100.00
49122;BME280;35529;44.342;25.944;2023-03-03T08:14:08;67726.06;;;-146.62;100.00
49122;BME280;35529;44.342;25.944;2023-03-03T08:16:55;67726.06;;;-146.62;100.00
49122;BME280;35529;44.342;25.944;2023-03-03T08:19:45;67726.06;;;-146.62;100.00
49122;BME280;35529;44.342;25.944;2023-03-03T08:22:39;67726.06;;;-146.62;100.00
49122;BME280;35529;44.342;25.944;2023-03-03T08:25:29;67726.06;;;-146.62;100.00
49122;BME280;35529;44.342;25.944;2023-03-03T08:28:19;67726.06;;;-146.62;100.00
49122;BME280;35529;44.342;25.944;2023-03-03T08:31:06;67726.06;;;-146.62;100.00
49122;BME280;35529;44.342;25.944;2023-03-03T08:33:53;67726.06;;;-146.62;100.00
49122;BME280;35529;44.342;25.944;2023-03-03T08:36:42;67726.06;;;-146.62;100.00
49122;BME280;35529;44.342;25.944;2023-03-03T08:39:30;67726.06;;;-146.62;100.00
49122;BME280;35529;44.342;25.944;2023-03-03T08:42:22;67726.06;;;-146.62;100.00
49122;BME280;35529;44.342;25.944;2023-03-03T08:45:19;67726.06;;;-146.62;100.00
49122;BME280;35529;44.342;25.944;2023-03-03T08:48:06;67726.06;;;-146.62;100.00
49122;BME280;35529;44.342;25.944;2023-03-03T08:50:56;67726.06;;;-146.62;100.00
49122;BME280;35529;44.342;25.944;2023-03-03T08:53:43;67726.06;;;-146.62;100.00
49122;BME280;35529;44.342;25.944;2023-03-03T08:56:30;67726.06;;;-146.62;100.00
49122;BME280;35529;44.342;25.944;2023-03-03T08:59:17;67726.06;;;-146.62;100.00
49122;BME280;35529;44.342;25.944;2023-03-03T09:02:08;67726.06;;;-146.62;100.00
49122;BME280;35529;44.342;25.944;2023-03-03T09:04:57;67726.06;;;-146.62;100.00
49122;BME280;35529;44.342;25.944;2023-03-03T09:07:44;67726.06;;;-146.62;100.00
49122;BME280;35529;44.342;25.944;2023-03-03T09:10:31;67726.06;;;-146.62;100.00
49122;BME280;35529;44.342;25.944;2023-03-03T09:13:21;67726.06;;;-146.62;100.00
49122;BME280;35529;44.342;25.944;2023-03-03T09:16:12;67726.06;;;-146.62;100.00
49122;BME280;35529;44.342;25.944;2023-03-03T09:19:01;67726.06;;;-146.62;100.00
49122;BME280;35529;44.342;25.944;2023-03-03T09:22:18;67726.06;;;-146.62;100.00
49122;BME280;35529;44.342;25.944;2023-03-03T09:25:05;67726.06;;;-146.62;100.00
49122;BME280;35529;44.342;25.944;2023-03-03T09:28:07;67726.06;;;-146.62;100.00
49122;BME280;35529;44.342;25.944;2023-03-03T09:31:16;67726.06;;;-146.62;100.00
49122;BME280;35529;44.342;25.944;2023-03-03T09:34:26;67726.06;;;-146.62;100.00
49122;BME280;35529;44.342;25.944;2023-03-03T09:40:18;67726.06;;;-146.62;100.00
49122;BME280;35529;44.342;25.944;2023-03-03T09:43:23;67726.06;;;-146.62;100.00
49122;BME280;35529;44.342;25.944;2023-03-03T09:49:19;67726.06;;;-146.62;100.00
49122;BME280;35529;44.342;25.944;2023-03-03T10:06:39;67726.06;;;-146.62;100.00
49122;BME280;35529;44.342;25.944;2023-03-03T10:09:33;67726.06;;;-146.62;100.00
49122;BME280;35529;44.342;25.944;2023-03-03T10:12:47;67726.06;;;-146.62;100.00
49122;BME280;35529;44.342;25.944;2023-03-03T10:15:42;67726.06;;;-146.62;100.00
49122;BME280;35529;44.342;25.944;2023-03-03T10:18:41;67726.06;;;-146.62;100.00
49122;BME280;35529;44.342;25.944;2023-03-03T10:21:50;67726.06;;;-146.62;100.00
49122;BME280;35529;44.342;25.944;2023-03-03T10:24:42;67726.06;;;-146.62;100.00
49122;BME280;35529;44.342;25.944;2023-03-03T10:33:31;67726.06;;;-146.62;100.00
49122;BME280;35529;44.342;25.944;2023-03-03T10:54:25;67726.06;;;-146.62;100.00
49122;BME280;35529;44.342;25.944;2023-03-03T11:09:04;67726.06;;;-146.62;100.00
49122;BME280;35529;44.342;25.944;2023-03-03T11:18:10;67726.06;;;-146.62;100.00
49122;BME280;35529;44.342;25.944;2023-03-03T11:27:31;67726.06;;;-146.62;100.00
49122;BME280;35529;44.342;25.944;2023-03-03T11:30:33;67726.06;;;-146.62;100.00
49122;BME280;35529;44.342;25.944;2023-03-03T11:33:22;67726.06;;;-146.62;100.00
49122;BME280;35529;44.342;25.944;2023-03-03T11:36:20;67726.06;;;-146.62;100.00
49122;BME280;35529;44.342;25.944;2023-03-03T11:39:43;67726.06;;;-146.62;100.00
49122;BME280;35529;44.342;25.944;2023-03-03T11:45:18;67726.06;;;-146.62;100.00
49122;BME280;35529;44.342;25.944;2023-03-03T11:48:16;67726.06;;;-146.62;100.00
49122;BME280;35529;44.342;25.944;2023-03-03T11:51:10;67726.06;;;-146.62;100.00
49122;BME280;35529;44.342;25.944;2023-03-03T11:54:47;67726.06;;;-146.62;100.00
49122;BME280;35529;44.342;25.944;2023-03-03T11:57:16;67726.06;;;-146.62;100.00
49122;BME280;35529;44.342;25.944;2023-03-03T12:00:14;67726.06;;;-146.62;100.00
49122;BME280;35529;44.342;25.944;2023-03-03T12:03:17;67726.06;;;-146.62;100.00
49122;BME280;35529;44.342;25.944;2023-03-03T12:26:43;67726.06;;;-146.62;100.00
49122;BME280;35529;44.342;25.944;2023-03-03T12:29:56;67726.06;;;-146.62;100.00
49122;BME280;35529;44.342;25.944;2023-03-03T12:36:33;67726.06;;;-146.62;100.00
49122;BME280;35529;44.342;25.944;2023-03-03T12:54:16;67726.06;;;-146.62;100.00
49122;BME280;35529;44.342;25.944;2023-03-03T12:57:25;67726.06;;;-146.62;100.00
49122;BME280;35529;44.342;25.944;2023-03-03T13:00:21;67726.06;;;-146.62;100.00
49122;BME280;35529;44.342;25.944;2023-03-03T13:06:21;67726.06;;;-146.62;100.00
49122;BME280;35529;44.342;25.944;2023-03-03T13:15:29;67726.06;;;-146.62;100.00
49122;BME280;35529;44.342;25.944;2023-03-03T13:27:03;67726.06;;;-146.62;100.00
49122;BME280;35529;44.342;25.944;2023-03-03T13:32:46;67726.06;;;-146.62;100.00
49122;BME280;35529;44.342;25.944;2023-03-03T13:38:51;67726.06;;;-146.62;100.00
49122;BME280;35529;44.342;25.944;2023-03-03T13:44:29;67726.06;;;-146.62;100.00
49122;BME280;35529;44.342;25.944;2023-03-03T13:47:25;67726.06;;;-146.62;100.00
49122;BME280;35529;44.342;25.944;2023-03-03T13:50:21;67726.06;;;-146.62;100.00
49122;BME280;35529;44.342;25.944;2023-03-03T14:11:29;67726.06;;;-146.62;100.00
49122;BME280;35529;44.342;25.944;2023-03-03T14:17:14;67726.06;;;-146.62;100.00
49122;BME280;35529;44.342;25.944;2023-03-03T14:26:00;67726.06;;;-146.62;100.00
49122;BME280;35529;44.342;25.944;2023-03-03T14:29:13;67726.06;;;-146.62;100.00
49122;BME280;35529;44.342;25.944;2023-03-03T14:32:24;67726.06;;;-146.62;100.00
49122;BME280;35529;44.342;25.944;2023-03-03T14:35:18;67726.06;;;-146.62;100.00
49122;BME280;35529;44.342;25.944;2023-03-03T14:38:15;67726.06;;;-146.62;100.00
49122;BME280;35529;44.342;25.944;2023-03-03T14:41:19;67726.06;;;-146.62;100.00
49122;BME280;35529;44.342;25.944;2023-03-03T14:50:27;67726.06;;;-146.62;100.00
49122;BME280;35529;44.342;25.944;2023-03-03T14:53:29;67726.06;;;-146.62;100.00
49122;BME280;35529;44.342;25.944;2023-03-03T14:56:15;101838.50;;;6.27;100.00
49122;BME280;35529;44.342;25.944;2023-03-03T14:58:50;100611.69;;;9.94;100.00
49122;BME280;35529;44.342;25.944;2023-03-03T15:06:34;100604.59;;;9.80;100.00
49122;BME280;35529;44.342;25.944;2023-03-03T15:11:49;100605.06;;;9.68;100.00
49122;BME280;35529;44.342;25.944;2023-03-03T15:14:16;100609.47;;;9.61;100.00
49122;BME280;35529;44.342;25.944;2023-03-03T15:16:44;100601.72;;;9.60;100.00
49122;BME280;35529;44.342;25.944;2023-03-03T15:19:17;100606.38;;;9.57;100.00
49122;BME280;35529;44.342;25.944;2023-03-03T15:24:39;100607.69;;;9.47;100.00
49122;BME280;35529;44.342;25.944;2023-03-03T15:27:20;100605.78;;;9.41;100.00
49122;BME280;35529;44.342;25.944;2023-03-03T15:32:28;100611.91;;;9.41;100.00
49122;BME280;35529;44.342;25.944;2023-03-03T15:37:47;100607.91;;;9.30;100.00
49122;BME280;35529;44.342;25.944;2023-03-03T15:42:47;100609.38;;;9.18;100.00
49122;BME280;35529;44.342;25.944;2023-03-03T15:45:20;100616.59;;;9.09;100.00
49122;BME280;35529;44.342;25.944;2023-03-03T15:51:37;100611.94;;;8.96;100.00
49122;BME280;35529;44.342;25.944;2023-03-03T16:03:53;100627.59;;;8.68;100.00
49122;BME280;35529;44.342;25.944;2023-03-03T16:06:58;67726.06;;;-146.62;100.00
49122;BME280;35529;44.342;25.944;2023-03-03T16:12:13;100629.41;;;8.52;100.00
49122;BME280;35529;44.342;25.944;2023-03-03T16:17:58;67726.06;;;-146.62;100.00
49122;BME280;35529;44.342;25.944;2023-03-03T16:20:58;100629.41;;;8.52;100.00
49122;BME280;35529;44.342;25.944;2023-03-03T16:26:26;67726.06;;;-146.62;100.00
49122;BME280;35529;44.342;25.944;2023-03-03T16:29:07;67726.06;;;-146.62;100.00
49122;BME280;35529;44.342;25.944;2023-03-03T16:31:40;67726.06;;;-146.62;100.00
49122;BME280;35529;44.342;25.944;2023-03-03T16:48:19;67726.06;;;-146.62;100.00
49122;BME280;35529;44.342;25.944;2023-03-03T16:57:08;67726.06;;;-146.62;100.00
49122;BME280;35529;44.342;25.944;2023-03-03T17:00:08;67726.06;;;-146.62;100.00
49122;BME280;35529;44.342;25.944;2023-03-03T17:06:12;67726.06;;;-146.62;100.00
49122;BME280;35529;44.342;25.944;2023-03-03T17:20:59;67726.06;;;-146.62;100.00
49122;BME280;35529;44.342;25.944;2023-03-03T17:23:55;67726.06;;;-146.62;100.00
49122;BME280;35529;44.342;25.944;2023-03-03T17:27:00;67726.06;;;-146.62;100.00
49122;BME280;35529;44.342;25.944;2023-03-03T17:30:08;67726.06;;;-146.62;100.00
49122;BME280;35529;44.342;25.944;2023-03-03T17:33:14;67726.06;;;-146.62;100.00
49122;BME280;35529;44.342;25.944;2023-03-03T17:38:56;67726.06;;;-146.62;100.00
49122;BME280;35529;44.342;25.944;2023-03-03T17:53:31;67726.06;;;-146.62;100.00
49122;BME280;35529;44.342;25.944;2023-03-03T17:56:27;67726.06;;;-146.62;100.00
49122;BME280;35529;44.342;25.944;2023-03-03T18:25:55;67726.06;;;-146.62;100.00
49122;BME280;35529;44.342;25.944;2023-03-03T18:28:48;67726.06;;;-146.62;100.00
49122;BME280;35529;44.342;25.944;2023-03-03T18:32:16;67726.06;;;-146.62;100.00
49122;BME280;35529;44.342;25.944;2023-03-03T18:35:14;67726.06;;;-146.62;100.00
49122;BME280;35529;44.342;25.944;2023-03-03T18:41:06;67726.06;;;-146.62;100.00
49122;BME280;35529;44.342;25.944;2023-03-03T18:46:45;67726.06;;;-146.62;100.00
49122;BME280;35529;44.342;25.944;2023-03-03T18:53:04;67726.06;;;-146.62;0.00
49122;BME280;35529;44.342;25.944;2023-03-03T18:55:27;100637.88;;;8.48;100.00
49122;BME280;35529;44.342;25.944;2023-03-03T19:03:36;100726.44;;;6.44;100.00
49122;BME280;35529;44.342;25.944;2023-03-03T19:09:17;100726.44;;;6.44;100.00
49122;BME280;35529;44.342;25.944;2023-03-03T19:11:54;100732.03;;;6.41;100.00
49122;BME280;35529;44.342;25.944;2023-03-03T19:14:37;100726.25;;;6.45;100.00
49122;BME280;35529;44.342;25.944;2023-03-03T19:17:51;67726.06;;;-146.62;100.00
49122;BME280;35529;44.342;25.944;2023-03-03T19:22:30;100730.38;;;6.48;100.00
49122;BME280;35529;44.342;25.944;2023-03-03T19:25:20;100730.38;;;6.48;100.00
49122;BME280;35529;44.342;25.944;2023-03-03T19:28:03;100730.38;;;6.48;100.00
49122;BME280;35529;44.342;25.944;2023-03-03T19:33:24;100730.38;;;6.48;100.00
49122;BME280;35529;44.342;25.944;2023-03-03T19:51:48;100759.91;;;6.35;100.00
49122;BME280;35529;44.342;25.944;2023-03-03T19:54:21;100751.97;;;6.35;100.00
49122;BME280;35529;44.342;25.944;2023-03-03T19:56:53;100751.81;;;6.28;100.00
49122;BME280;35529;44.342;25.944;2023-03-03T20:04:55;100757.72;;;6.30;100.00
49122;BME280;35529;44.342;25.944;2023-03-03T20:07:44;100757.72;;;6.30;100.00
49122;BME280;35529;44.342;25.944;2023-03-03T20:12:48;100762.66;;;6.33;100.00
49122;BME280;35529;44.342;25.944;2023-03-03T20:15:31;100764.81;;;6.30;100.00
49122;BME280;35529;44.342;25.944;2023-03-03T20:20:55;100773.72;;;6.29;100.00
49122;BME280;35529;44.342;25.944;2023-03-03T20:23:30;100774.19;;;6.24;100.00
49122;BME280;35529;44.342;25.944;2023-03-03T20:26:11;100779.97;;;6.28;100.00
49122;BME280;35529;44.342;25.944;2023-03-03T20:29:02;100765.81;;;6.29;100.00
49122;BME280;35529;44.342;25.944;2023-03-03T20:31:57;100768.91;;;6.24;100.00